Time;durP1;ratioP1;P1;durP2;ratioP2;P2;SDS_P1;SDS_P2;PMS_P1;PMS_P2;Temp;Humidity;BMP_temperature;BMP_pressure;BME280_temperature;BME280_humidity;BME280_pressure;Samples;Min_cycle;Max_cycle;Signal;HPM_P1;HPM_P2
2023/03/27 00:01:02;;;;;;;10.73;9.73;;;23.70;68.70;;;;;;6079196;28;94133;-68
2023/03/27 00:04:04;;;;;;;11.23;10.13;;;23.70;68.80;;;;;;6082211;28;94626;-69
2023/03/27 00:07:06;;;;;;;10.90;9.90;;;23.70;68.60;;;;;;6079439;28;95105;-69
2023/03/27 00:10:11;;;;;;;10.40;9.40;;;23.70;68.60;;;;;;6076849;28;94005;-68
2023/03/27 00:13:13;;;;;;;10.02;9.10;;;23.70;68.60;;;;;;6082214;28;94135;-68
2023/03/27 00:16:15;;;;;;;9.93;8.98;;;23.70;68.60;;;;;;6082086;28;94340;-68
2023/03/27 00:19:17;;;;;;;9.52;8.63;;;23.60;68.60;;;;;;6080889;28;95343;-69
2023/03/27 00:22:19;;;;;;;9.23;8.32;;;23.60;68.60;;;;;;6080961;28;94109;-69
2023/03/27 00:25:25;;;;;;;9.95;8.95;;;23.60;68.60;;;;;;6080710;28;94127;-69
2023/03/27 00:28:29;;;;;;;9.98;8.98;;;23.60;68.60;;;;;;6080774;28;93368;-69
2023/03/27 00:31:31;;;;;;;9.63;8.70;;;23.60;68.60;;;;;;6080737;28;94008;-69
2023/03/27 00:34:33;;;;;;;8.70;7.90;;;23.60;68.60;;;;;;6070465;28;94472;-69
2023/03/27 00:37:35;;;;;;;9.07;8.27;;;23.60;68.60;;;;;;6079605;28;95039;-68
2023/03/27 00:40:39;;;;;;;8.95;8.15;;;23.60;68.60;;;;;;6081053;28;93853;-69
2023/03/27 00:43:43;;;;;;;8.60;7.75;;;23.60;68.60;;;;;;6081254;28;94070;-69
2023/03/27 00:46:45;;;;;;;8.88;8.07;;;23.60;68.70;;;;;;6081419;28;94369;-68
2023/03/27 00:49:49;;;;;;;8.43;7.63;;;23.60;68.60;;;;;;6079502;28;94163;-69
2023/03/27 00:52:55;;;;;;;8.15;7.35;;;23.60;68.70;;;;;;6079449;28;94074;-69
2023/03/27 00:56:01;;;;;;;9.25;8.13;;;23.60;68.70;;;;;;6080534;28;94120;-68
2023/03/27 00:59:08;;;;;;;7.88;7.07;;;23.50;68.70;;;;;;6080493;28;93358;-68
2023/03/27 01:02:10;;;;;;;8.00;7.20;;;23.50;68.80;;;;;;6080720;28;94462;-69
2023/03/27 01:05:12;;;;;;;7.45;6.75;;;23.50;68.80;;;;;;6081038;28;94501;-68
2023/03/27 01:08:15;;;;;;;7.50;6.80;;;23.50;68.70;;;;;;6079640;28;95341;-68
2023/03/27 01:11:34;;;;;;;8.70;7.80;;;23.60;68.80;;;;;;6076734;28;94935;-69
2023/03/27 01:14:46;;;;;;;7.25;6.65;;;23.50;68.70;;;;;;6081138;28;94507;-68
2023/03/27 01:18:01;;;;;;;7.20;6.60;;;23.50;68.70;;;;;;6081161;28;94235;-68
2023/03/27 01:21:52;;;;;;;7.53;6.82;;;23.50;68.70;;;;;;6077670;28;94224;-69
2023/03/27 01:25:20;;;;;;;6.75;6.15;;;23.50;68.80;;;;;;5992753;28;93213;-68
2023/03/27 01:28:35;;;;;;;6.93;6.25;;;23.50;68.80;;;;;;6072319;28;94161;-68
2023/03/27 01:31:55;;;;;;;7.13;6.47;;;23.40;68.60;;;;;;6080073;28;93383;-68
2023/03/27 01:35:17;;;;;;;6.88;6.28;;;23.40;68.80;;;;;;6080218;28;94182;-69
2023/03/27 01:38:59;;;;;;;6.22;5.72;;;23.50;68.90;;;;;;6077313;28;94128;-69
2023/03/27 01:42:07;;;;;;;6.38;5.78;;;23.50;68.80;;;;;;6079905;28;93988;-69
2023/03/27 01:45:15;;;;;;;6.68;6.03;;;23.40;68.80;;;;;;6084261;28;94127;-69
2023/03/27 01:48:25;;;;;;;6.57;5.97;;;23.40;68.70;;;;;;6084751;28;94153;-69
2023/03/27 01:51:33;;;;;;;7.55;6.25;;;23.40;68.60;;;;;;6081781;28;94033;-69
2023/03/27 01:54:42;;;;;;;5.78;5.28;;;23.40;68.70;;;;;;6084766;28;94043;-69
2023/03/27 01:57:49;;;;;;;6.20;5.60;;;23.40;68.80;;;;;;6082590;28;94219;-69
2023/03/27 02:00:55;;;;;;;5.60;5.10;;;23.40;68.80;;;;;;6082884;28;94371;-69
2023/03/27 02:04:00;;;;;;;6.90;6.20;;;23.40;68.80;;;;;;6083563;28;93594;-69
2023/03/27 02:07:07;;;;;;;6.22;5.63;;;23.40;68.80;;;;;;6082204;28;94188;-69
2023/03/27 02:10:16;;;;;;;5.47;4.97;;;23.40;68.80;;;;;;6081932;28;94064;-69
2023/03/27 02:13:23;;;;;;;4.85;4.45;;;23.30;68.80;;;;;;6083691;28;95008;-69
2023/03/27 02:16:32;;;;;;;5.43;4.93;;;23.40;68.80;;;;;;6081571;28;94288;-70
2023/03/27 02:19:38;;;;;;;5.68;5.18;;;23.40;68.80;;;;;;6083290;28;94397;-69
2023/03/27 02:22:41;;;;;;;5.55;5.05;;;23.40;68.80;;;;;;6076666;28;93056;-68
2023/03/27 02:25:45;;;;;;;5.13;4.72;;;23.30;68.80;;;;;;6083014;28;94109;-69
2023/03/27 02:29:05;;;;;;;5.68;5.07;;;23.30;68.80;;;;;;6078617;28;93090;-69
2023/03/27 02:32:18;;;;;;;4.90;4.50;;;23.30;68.80;;;;;;6081780;28;94164;-69
2023/03/27 02:35:34;;;;;;;4.90;4.47;;;23.30;68.80;;;;;;6083567;28;93882;-69
2023/03/27 02:38:42;;;;;;;4.97;4.53;;;23.30;68.80;;;;;;6082926;28;94534;-69
2023/03/27 02:41:51;;;;;;;4.95;4.55;;;23.30;68.80;;;;;;6082371;28;96475;-69
2023/03/27 02:44:59;;;;;;;4.95;4.55;;;23.30;68.90;;;;;;6083984;28;95267;-69
2023/03/27 02:48:06;;;;;;;4.65;4.25;;;23.30;68.90;;;;;;6082517;28;94282;-69
2023/03/27 02:51:14;;;;;;;4.30;3.90;;;23.30;68.80;;;;;;6082813;28;94166;-69
2023/03/27 02:54:19;;;;;;;4.60;4.20;;;23.30;68.80;;;;;;6081898;28;94359;-69
2023/03/27 02:57:27;;;;;;;4.93;4.43;;;23.30;68.80;;;;;;6078428;28;94158;-69
2023/03/27 03:00:32;;;;;;;4.32;3.92;;;23.30;68.80;;;;;;6083139;28;94206;-69
2023/03/27 03:03:38;;;;;;;4.43;4.03;;;23.30;68.90;;;;;;6082289;28;94120;-69
2023/03/27 03:06:41;;;;;;;4.25;3.85;;;23.30;69.80;;;;;;6080897;28;93654;-69
2023/03/27 03:09:44;;;;;;;4.47;4.07;;;23.30;68.90;;;;;;6083569;28;94136;-69
2023/03/27 03:12:47;;;;;;;4.07;3.70;;;23.30;68.80;;;;;;6081896;28;94217;-69
2023/03/27 03:15:49;;;;;;;4.47;4.07;;;23.20;68.80;;;;;;6080907;28;95337;-69
2023/03/27 03:18:51;;;;;;;5.55;4.50;;;23.20;68.80;;;;;;6081038;28;94205;-69
2023/03/27 03:21:54;;;;;;;4.28;3.88;;;23.20;68.80;;;;;;6082634;28;94412;-69
2023/03/27 03:24:56;;;;;;;4.25;3.85;;;23.20;68.80;;;;;;6071741;28;94112;-68
2023/03/27 03:27:59;;;;;;;4.32;3.92;;;23.20;68.80;;;;;;6083226;28;94122;-69
2023/03/27 03:31:03;;;;;;;3.95;3.60;;;23.20;68.80;;;;;;6080178;28;94609;-68
2023/03/27 03:34:05;;;;;;;3.90;3.60;;;23.20;68.80;;;;;;6083746;28;94374;-69
2023/03/27 03:37:09;;;;;;;3.70;3.40;;;23.20;68.70;;;;;;6083612;28;96154;-68
2023/03/27 03:40:11;;;;;;;3.85;3.55;;;23.10;68.70;;;;;;6089068;28;94232;-68
2023/03/27 03:43:15;;;;;;;4.00;3.60;;;23.10;68.70;;;;;;6084124;28;93338;-68
2023/03/27 03:46:17;;;;;;;3.60;3.30;;;23.20;68.80;;;;;;6079650;28;95058;-68
2023/03/27 03:49:19;;;;;;;3.85;3.55;;;23.20;68.80;;;;;;6080812;28;94128;-69
2023/03/27 03:52:21;;;;;;;4.47;3.90;;;23.20;68.70;;;;;;6079897;28;94078;-68
2023/03/27 03:55:24;;;;;;;3.95;3.55;;;23.20;68.80;;;;;;6081129;28;94117;-68
2023/03/27 03:58:27;;;;;;;3.50;3.20;;;23.20;68.70;;;;;;6081931;28;94589;-69
2023/03/27 04:01:30;;;;;;;3.78;3.47;;;23.20;68.70;;;;;;6081907;28;95099;-68
2023/03/27 04:04:32;;;;;;;3.80;3.40;;;23.20;68.60;;;;;;6080959;28;94202;-69
2023/03/27 04:07:34;;;;;;;3.60;3.30;;;23.30;68.60;;;;;;6082779;28;93795;-68
2023/03/27 04:10:38;;;;;;;3.85;3.45;;;23.30;68.50;;;;;;6082041;28;94675;-69
2023/03/27 04:13:41;;;;;;;4.00;3.60;;;23.30;68.40;;;;;;6076791;28;94100;-68
2023/03/27 04:16:43;;;;;;;3.80;3.42;;;23.30;68.40;;;;;;6081968;28;95399;-68
2023/03/27 04:19:45;;;;;;;3.30;3.00;;;23.30;68.30;;;;;;6082083;28;94023;-69
2023/03/27 04:22:49;;;;;;;3.55;3.25;;;23.30;68.20;;;;;;6082284;28;94308;-69
2023/03/27 04:25:52;;;;;;;3.88;3.55;;;23.40;68.10;;;;;;6080023;28;96723;-69
2023/03/27 04:28:55;;;;;;;3.40;3.10;;;23.40;68.10;;;;;;6080325;28;93118;-69
2023/03/27 04:31:58;;;;;;;3.17;2.95;;;23.40;68.00;;;;;;6081641;28;94160;-68
2023/03/27 04:35:00;;;;;;;3.53;3.22;;;23.50;67.90;;;;;;6081491;28;94145;-69
2023/03/27 04:38:02;;;;;;;3.33;3.03;;;23.50;68.00;;;;;;6082017;28;93265;-70
2023/03/27 04:41:05;;;;;;;3.25;2.95;;;23.50;67.90;;;;;;6081268;28;93009;-69
2023/03/27 04:44:09;;;;;;;3.70;3.40;;;23.50;67.90;;;;;;6082646;28;94146;-69
2023/03/27 04:47:11;;;;;;;3.40;3.10;;;23.50;67.80;;;;;;6080124;28;95401;-68
2023/03/27 04:50:13;;;;;;;3.30;3.00;;;23.60;67.90;;;;;;6080585;28;94154;-68
2023/03/27 04:53:15;;;;;;;3.38;3.08;;;23.60;67.80;;;;;;6081937;28;94198;-68
2023/03/27 04:56:17;;;;;;;3.10;2.72;;;23.50;67.70;;;;;;6082173;28;96501;-69
2023/03/27 04:59:21;;;;;;;3.10;2.80;;;23.60;67.70;;;;;;6080243;28;94493;-68
2023/03/27 05:02:25;;;;;;;3.22;2.90;;;23.60;67.70;;;;;;6080694;28;94385;-68
2023/03/27 05:05:27;;;;;;;3.22;2.92;;;23.60;67.70;;;;;;6080711;28;93030;-69
2023/03/27 05:08:29;;;;;;;3.28;2.90;;;23.60;67.70;;;;;;6080795;28;92266;-68
2023/03/27 05:11:31;;;;;;;3.63;3.25;;;23.60;67.60;;;;;;6081451;28;94216;-69
2023/03/27 05:14:35;;;;;;;3.40;3.10;;;23.60;67.60;;;;;;6086266;28;94344;-68
2023/03/27 05:17:39;;;;;;;3.50;3.20;;;23.60;67.60;;;;;;6084521;28;94980;-68
2023/03/27 05:20:42;;;;;;;2.97;2.78;;;23.60;67.60;;;;;;6072738;28;94057;-69
2023/03/27 05:23:44;;;;;;;3.00;2.80;;;23.60;67.50;;;;;;6085348;28;94277;-68
2023/03/27 05:26:47;;;;;;;2.75;2.55;;;23.60;67.60;;;;;;6084668;28;94082;-68
2023/03/27 05:29:50;;;;;;;2.60;2.40;;;23.70;67.60;;;;;;6085476;28;94194;-68
2023/03/27 05:32:53;;;;;;;3.10;2.83;;;23.70;67.60;;;;;;6084989;28;96952;-68
2023/03/27 05:35:56;;;;;;;2.80;2.60;;;23.60;67.50;;;;;;6084253;28;94105;-68
2023/03/27 05:38:58;;;;;;;2.70;2.50;;;23.60;67.50;;;;;;6084968;28;93446;-68
2023/03/27 05:42:00;;;;;;;2.95;2.65;;;23.70;67.50;;;;;;6083954;28;94148;-68
2023/03/27 05:45:04;;;;;;;2.70;2.50;;;23.70;67.50;;;;;;6084488;28;95185;-68
2023/03/27 05:48:07;;;;;;;3.00;2.72;;;23.70;67.40;;;;;;6083513;28;95392;-68
2023/03/27 05:51:09;;;;;;;2.85;2.50;;;23.70;67.40;;;;;;6085079;28;94118;-68
2023/03/27 05:54:11;;;;;;;2.75;2.55;;;23.70;67.40;;;;;;6084140;28;94110;-68
2023/03/27 05:57:13;;;;;;;2.60;2.40;;;23.70;67.40;;;;;;6084556;28;94382;-69
2023/03/27 06:00:23;;;;;;;2.47;2.28;;;23.70;67.40;;;;;;6083186;28;94211;-68
2023/03/27 06:03:29;;;;;;;2.58;2.38;;;23.70;67.40;;;;;;6083563;28;94362;-68
2023/03/27 06:06:31;;;;;;;2.90;2.60;;;23.70;67.40;;;;;;6084398;28;95359;-68
2023/03/27 06:09:34;;;;;;;2.50;2.30;;;23.70;67.40;;;;;;6084611;28;93360;-68
2023/03/27 06:12:36;;;;;;;2.63;2.42;;;23.70;67.40;;;;;;6084301;28;93017;-68
2023/03/27 06:15:41;;;;;;;2.40;2.20;;;23.70;67.40;;;;;;6084271;28;94083;-68
2023/03/27 06:18:43;;;;;;;2.58;2.38;;;23.70;67.40;;;;;;6083787;28;95090;-69
2023/03/27 06:21:45;;;;;;;2.55;2.35;;;23.70;67.30;;;;;;6084725;28;94333;-68
2023/03/27 06:24:47;;;;;;;2.30;2.10;;;23.70;67.30;;;;;;6082883;28;94134;-68
2023/03/27 06:27:50;;;;;;;2.45;2.25;;;23.70;67.30;;;;;;6084403;28;94175;-69
2023/03/27 06:30:54;;;;;;;2.53;2.30;;;23.70;67.30;;;;;;6084204;28;94152;-68
2023/03/27 06:33:56;;;;;;;2.30;2.10;;;23.80;67.30;;;;;;6084197;28;94068;-68
2023/03/27 06:37:02;;;;;;;2.33;2.13;;;23.70;67.20;;;;;;6082798;28;94227;-68
2023/03/27 06:40:09;;;;;;;2.40;2.20;;;23.80;67.30;;;;;;6083097;28;94798;-68
2023/03/27 06:43:12;;;;;;;2.40;2.20;;;23.80;67.20;;;;;;6083288;28;94119;-69
2023/03/27 06:46:16;;;;;;;2.45;2.25;;;23.80;67.20;;;;;;6082658;28;94123;-68
2023/03/27 06:49:18;;;;;;;2.10;1.90;;;23.80;67.20;;;;;;6080401;28;95172;-68
2023/03/27 06:52:20;;;;;;;2.30;2.10;;;23.80;67.30;;;;;;6082987;28;94229;-68
2023/03/27 06:55:23;;;;;;;2.13;1.92;;;23.80;67.20;;;;;;6082496;28;94054;-68
2023/03/27 06:58:26;;;;;;;2.20;2.00;;;23.80;67.20;;;;;;6082403;28;94560;-68
2023/03/27 07:01:29;;;;;;;2.30;2.10;;;23.80;67.20;;;;;;6082343;28;94086;-68
2023/03/27 07:04:32;;;;;;;2.20;2.00;;;23.80;67.20;;;;;;6083342;28;92986;-69
2023/03/27 07:07:35;;;;;;;2.28;2.08;;;23.80;67.20;;;;;;6082692;28;94135;-68
2023/03/27 07:10:37;;;;;;;2.17;1.98;;;23.80;67.20;;;;;;6083457;28;93494;-68
2023/03/27 07:13:40;;;;;;;2.35;2.08;;;23.90;67.20;;;;;;6082746;28;95659;-67
2023/03/27 07:16:43;;;;;;;2.08;1.90;;;23.80;67.20;;;;;;6082786;28;94681;-68
2023/03/27 07:19:45;;;;;;;2.53;2.30;;;23.80;67.20;;;;;;6082523;28;95001;-68
2023/03/27 07:22:47;;;;;;;3.08;2.55;;;23.80;67.20;;;;;;6082749;28;94551;-68
2023/03/27 07:25:50;;;;;;;2.30;2.10;;;23.80;67.20;;;;;;6083424;28;94085;-68
2023/03/27 07:28:53;;;;;;;2.10;1.90;;;23.80;67.20;;;;;;6071827;28;94244;-68
2023/03/27 07:31:56;;;;;;;2.20;2.00;;;23.80;67.20;;;;;;6082417;28;94238;-67
2023/03/27 07:34:59;;;;;;;1.90;1.80;;;23.80;67.20;;;;;;6081373;28;94111;-68
2023/03/27 07:38:03;;;;;;;2.40;2.10;;;23.90;67.20;;;;;;6080515;28;94342;-68
2023/03/27 07:41:06;;;;;;;2.53;2.33;;;23.80;67.20;;;;;;6082809;28;92593;-69
2023/03/27 07:44:08;;;;;;;2.28;2.08;;;23.90;67.20;;;;;;6082978;28;94496;-69
2023/03/27 07:47:11;;;;;;;2.10;1.90;;;23.90;67.20;;;;;;6083123;28;94185;-68
2023/03/27 07:50:15;;;;;;;2.35;1.95;;;23.90;68.10;;;;;;6081454;28;95331;-68
2023/03/27 07:53:18;;;;;;;2.28;2.08;;;23.90;67.20;;;;;;6082235;28;94103;-68
2023/03/27 07:56:20;;;;;;;2.20;1.90;;;23.90;67.20;;;;;;6082351;28;94284;-69
2023/03/27 07:59:22;;;;;;;2.10;1.90;;;23.90;67.10;;;;;;6082381;28;94188;-69
2023/03/27 08:02:26;;;;;;;2.10;1.90;;;23.90;67.10;;;;;;6081237;28;94396;-68
2023/03/27 08:05:28;;;;;;;2.22;2.03;;;23.90;67.00;;;;;;6082336;28;93603;-68
2023/03/27 08:08:30;;;;;;;2.85;2.38;;;23.90;67.00;;;;;;6081329;28;94258;-69
2023/03/27 08:11:33;;;;;;;2.65;2.45;;;23.90;67.00;;;;;;6082692;28;93373;-69
2023/03/27 08:14:35;;;;;;;2.30;2.10;;;23.90;66.90;;;;;;6083220;28;94359;-68
2023/03/27 08:17:38;;;;;;;2.15;1.95;;;23.90;66.90;;;;;;6082056;28;94054;-68
2023/03/27 08:20:41;;;;;;;2.20;2.00;;;23.90;66.80;;;;;;6081231;28;95014;-69
2023/03/27 08:23:43;;;;;;;2.10;1.90;;;23.90;66.90;;;;;;6082023;28;94180;-68
2023/03/27 08:26:45;;;;;;;2.05;1.92;;;23.90;67.00;;;;;;6080363;28;94086;-69
2023/03/27 08:29:48;;;;;;;2.13;2.00;;;23.90;66.90;;;;;;6081117;28;94074;-68
2023/03/27 08:32:51;;;;;;;2.10;1.90;;;23.90;66.90;;;;;;6079023;28;94334;-68
2023/03/27 08:35:55;;;;;;;2.28;2.08;;;23.90;67.00;;;;;;6081073;28;94612;-68
2023/03/27 08:39:01;;;;;;;2.30;2.10;;;23.90;66.90;;;;;;6082676;28;94091;-68
2023/03/27 08:42:05;;;;;;;2.03;1.85;;;23.90;66.90;;;;;;6081869;28;93646;-68
2023/03/27 08:45:14;;;;;;;1.95;1.85;;;23.90;66.90;;;;;;6081520;28;94051;-68
2023/03/27 08:48:22;;;;;;;2.40;2.20;;;23.90;66.90;;;;;;6080858;28;94053;-68
2023/03/27 08:51:29;;;;;;;2.67;2.42;;;23.90;66.90;;;;;;6080200;28;95225;-68
2023/03/27 08:54:34;;;;;;;2.80;2.30;;;23.90;66.90;;;;;;6079659;28;94202;-68
2023/03/27 08:57:36;;;;;;;2.58;2.30;;;23.90;66.90;;;;;;6080966;28;94133;-69
2023/03/27 09:00:39;;;;;;;1.98;1.77;;;23.90;66.90;;;;;;6081512;28;94195;-68
2023/03/27 09:03:49;;;;;;;2.10;1.90;;;23.90;66.90;;;;;;6080330;28;94630;-68
2023/03/27 09:06:59;;;;;;;2.63;2.30;;;24.00;66.90;;;;;;6080420;28;94206;-69
2023/03/27 09:10:09;;;;;;;2.50;2.30;;;23.90;66.90;;;;;;6080970;28;94115;-69
2023/03/27 09:13:16;;;;;;;2.30;2.10;;;23.90;66.90;;;;;;6081299;28;92308;-68
2023/03/27 09:16:22;;;;;;;1.83;1.73;;;24.00;66.90;;;;;;6080278;28;94062;-68
2023/03/27 09:19:37;;;;;;;2.20;2.00;;;24.00;66.90;;;;;;6071201;28;94147;-68
2023/03/27 09:22:43;;;;;;;2.83;1.92;;;24.00;66.80;;;;;;6069606;28;95118;-68
2023/03/27 09:25:49;;;;;;;2.00;1.80;;;24.00;66.80;;;;;;6070243;28;94178;-69
2023/03/27 09:28:59;;;;;;;2.10;1.90;;;24.00;66.80;;;;;;6079803;28;94310;-68
2023/03/27 09:32:01;;;;;;;1.70;1.60;;;24.00;66.70;;;;;;6079386;28;94049;-69
2023/03/27 09:35:05;;;;;;;1.90;1.80;;;24.00;66.70;;;;;;6080493;28;94123;-69
2023/03/27 09:38:29;;;;;;;2.00;1.80;;;24.00;66.70;;;;;;6081031;28;94446;-68
2023/03/27 09:41:35;;;;;;;2.15;1.95;;;24.00;66.70;;;;;;6074220;28;93166;-68
2023/03/27 09:44:41;;;;;;;2.10;1.83;;;24.00;66.70;;;;;;6081026;28;93445;-69
2023/03/27 09:47:52;;;;;;;1.90;1.70;;;24.00;66.60;;;;;;6081052;28;94090;-68
2023/03/27 09:50:55;;;;;;;1.88;1.75;;;24.00;66.60;;;;;;6081638;28;94253;-69
2023/03/27 09:53:59;;;;;;;1.60;1.50;;;24.00;66.60;;;;;;6067593;28;95326;-68
2023/03/27 09:57:07;;;;;;;1.50;1.40;;;24.00;66.50;;;;;;6080082;28;94390;-68
2023/03/27 10:00:27;;;;;;;2.03;1.70;;;24.00;66.40;;;;;;6083340;28;94116;-68
2023/03/27 10:03:37;;;;;;;1.60;1.50;;;24.00;66.40;;;;;;6083660;28;94836;-68
2023/03/27 10:06:46;;;;;;;1.92;1.73;;;24.00;66.40;;;;;;6076187;28;94073;-68
2023/03/27 10:10:04;;;;;;;1.60;1.50;;;24.00;66.40;;;;;;6072525;28;92665;-68
2023/03/27 10:13:12;;;;;;;1.45;1.35;;;24.00;66.40;;;;;;6073394;28;94112;-68
2023/03/27 10:16:17;;;;;;;1.70;1.60;;;24.00;66.30;;;;;;6074053;28;93552;-68
2023/03/27 10:19:27;;;;;;;1.77;1.63;;;24.00;66.20;;;;;;6083817;28;95409;-69
2023/03/27 10:22:36;;;;;;;1.77;1.67;;;24.00;66.20;;;;;;6083674;28;94441;-68
2023/03/27 10:25:40;;;;;;;1.95;1.75;;;24.00;66.20;;;;;;6084406;28;95897;-69
2023/03/27 10:28:47;;;;;;;1.80;1.70;;;24.00;66.20;;;;;;6083441;28;94271;-68
2023/03/27 10:31:52;;;;;;;2.20;1.90;;;24.00;66.20;;;;;;6083633;28;94204;-68
2023/03/27 10:34:56;;;;;;;1.77;1.65;;;24.10;66.20;;;;;;6083661;28;92999;-68
2023/03/27 10:38:01;;;;;;;1.90;1.70;;;24.00;66.10;;;;;;6082896;28;94304;-68
2023/03/27 10:41:07;;;;;;;1.90;1.67;;;24.00;66.10;;;;;;6083495;28;94332;-68
2023/03/27 10:44:16;;;;;;;1.83;1.55;;;24.10;66.20;;;;;;6082497;28;94785;-68
2023/03/27 10:47:20;;;;;;;1.98;1.77;;;24.00;66.00;;;;;;6083727;28;92312;-68
2023/03/27 10:50:30;;;;;;;1.92;1.80;;;24.10;66.10;;;;;;6084226;28;94120;-69
2023/03/27 10:53:40;;;;;;;1.63;1.52;;;24.10;66.10;;;;;;6082463;28;93110;-68
2023/03/27 10:56:52;;;;;;;1.88;1.60;;;24.10;66.00;;;;;;6083300;28;95213;-68
2023/03/27 11:00:00;;;;;;;1.48;1.38;;;24.00;65.90;;;;;;6082746;28;94022;-69
2023/03/27 11:03:08;;;;;;;1.98;1.77;;;24.00;65.90;;;;;;6083173;28;94177;-69
2023/03/27 11:06:15;;;;;;;1.70;1.60;;;24.10;65.90;;;;;;6083496;28;94120;-69
2023/03/27 11:09:24;;;;;;;1.80;1.70;;;24.10;65.90;;;;;;6082103;28;94111;-69
2023/03/27 11:12:28;;;;;;;1.63;1.52;;;24.10;65.90;;;;;;6083157;28;94473;-69
2023/03/27 11:15:35;;;;;;;1.70;1.60;;;24.10;65.90;;;;;;6081819;28;94154;-68
2023/03/27 11:18:41;;;;;;;1.80;1.70;;;24.10;65.90;;;;;;6083449;28;92358;-69
2023/03/27 11:21:47;;;;;;;1.70;1.60;;;24.10;65.90;;;;;;6083790;28;94035;-68
2023/03/27 11:24:56;;;;;;;2.47;1.90;;;24.00;65.80;;;;;;6082670;28;94436;-68
2023/03/27 11:28:03;;;;;;;2.30;2.10;;;24.10;65.90;;;;;;6081837;28;95067;-69
2023/03/27 11:31:12;;;;;;;2.20;2.00;;;24.10;65.90;;;;;;6080216;28;94252;-68
2023/03/27 11:34:20;;;;;;;2.22;2.00;;;24.00;65.70;;;;;;6082190;28;94799;-69
2023/03/27 11:37:38;;;;;;;2.65;2.42;;;24.10;65.80;;;;;;6081462;28;94085;-68
2023/03/27 11:40:43;;;;;;;2.78;2.47;;;24.10;65.90;;;;;;6082912;28;93977;-68
2023/03/27 11:43:46;;;;;;;2.88;2.67;;;24.10;65.80;;;;;;6082113;28;94149;-68
2023/03/27 11:47:05;;;;;;;3.22;2.92;;;24.10;65.70;;;;;;6082702;28;94140;-69
2023/03/27 11:50:30;;;;;;;3.38;3.08;;;24.10;65.80;;;;;;6082310;28;93416;-69
2023/03/27 11:53:53;;;;;;;3.42;3.13;;;24.10;65.80;;;;;;6077202;28;94203;-68
2023/03/27 11:57:00;;;;;;;3.70;3.40;;;24.10;65.70;;;;;;6081591;28;94047;-68
2023/03/27 12:00:20;;;;;;;4.10;3.70;;;24.10;65.70;;;;;;6080708;28;95083;-68
2023/03/27 12:03:55;;;;;;;3.67;3.38;;;24.10;65.80;;;;;;6082063;28;94171;-68
2023/03/27 12:07:07;;;;;;;5.07;4.47;;;24.10;65.70;;;;;;6070110;28;95455;-68
2023/03/27 12:10:21;;;;;;;5.40;4.82;;;24.10;65.80;;;;;;6080548;28;94176;-68
2023/03/27 12:13:58;;;;;;;5.28;4.40;;;24.10;65.80;;;;;;6082418;28;94153;-68
2023/03/27 12:17:21;;;;;;;4.78;4.38;;;24.10;65.80;;;;;;6081990;28;94144;-68
2023/03/27 12:20:42;;;;;;;4.47;4.07;;;24.10;65.70;;;;;;6080004;28;94028;-69
2023/03/27 12:24:08;;;;;;;5.07;4.68;;;24.10;65.80;;;;;;6081662;28;93843;-68
2023/03/27 12:27:46;;;;;;;5.25;4.75;;;24.10;65.80;;;;;;6081844;28;94162;-69
2023/03/27 12:30:59;;;;;;;5.00;4.50;;;24.10;65.90;;;;;;6022836;28;94160;-68
2023/03/27 12:34:05;;;;;;;5.07;4.57;;;24.10;65.90;;;;;;6081071;28;95115;-69
2023/03/27 12:37:12;;;;;;;4.93;4.53;;;24.10;65.80;;;;;;6081159;28;94083;-68
2023/03/27 12:40:27;;;;;;;5.70;5.20;;;24.20;65.90;;;;;;6081006;28;94466;-68
2023/03/27 12:43:32;;;;;;;5.32;4.82;;;24.10;65.80;;;;;;6081202;28;94242;-69
2023/03/27 12:46:38;;;;;;;5.30;4.80;;;24.10;65.80;;;;;;6081494;28;94106;-69
2023/03/27 12:49:45;;;;;;;5.70;5.20;;;24.10;65.90;;;;;;6080314;28;94353;-69
2023/03/27 12:52:47;;;;;;;5.80;5.30;;;24.10;65.80;;;;;;6077740;28;94278;-69
2023/03/27 12:56:06;;;;;;;5.63;5.07;;;24.10;65.80;;;;;;6072604;28;93422;-68
2023/03/27 12:59:21;;;;;;;5.45;4.95;;;24.10;65.80;;;;;;6081872;28;94124;-69
2023/03/27 13:02:57;;;;;;;5.38;4.88;;;24.10;65.70;;;;;;6079683;28;94228;-68
2023/03/27 13:06:13;;;;;;;5.60;5.10;;;24.20;65.80;;;;;;6081652;28;95043;-69
2023/03/27 13:09:29;;;;;;;5.30;4.80;;;24.10;65.70;;;;;;6080058;28;94128;-68
2023/03/27 13:13:04;;;;;;;5.03;4.60;;;24.10;65.70;;;;;;6080472;28;94299;-69
2023/03/27 13:16:24;;;;;;;5.20;4.70;;;24.10;65.60;;;;;;6078574;28;94315;-68
2023/03/27 13:19:50;;;;;;;5.20;4.70;;;24.10;65.60;;;;;;6070596;28;93011;-69
2023/03/27 13:23:15;;;;;;;5.40;4.90;;;24.20;65.70;;;;;;6071882;28;94423;-68
2023/03/27 13:26:35;;;;;;;5.32;4.90;;;24.10;65.50;;;;;;6081528;28;94566;-69
2023/03/27 13:29:38;;;;;;;5.28;4.78;;;24.20;65.60;;;;;;6081122;28;93349;-69
2023/03/27 13:32:41;;;;;;;5.35;4.85;;;24.20;65.60;;;;;;6082085;28;94242;-69
2023/03/27 13:36:02;;;;;;;4.93;4.53;;;24.20;65.50;;;;;;6085210;28;94679;-69
2023/03/27 13:39:21;;;;;;;5.03;4.57;;;24.20;65.60;;;;;;6085158;28;95566;-69
2023/03/27 13:42:27;;;;;;;4.82;4.38;;;24.10;65.50;;;;;;6074013;28;93339;-69
2023/03/27 13:45:37;;;;;;;4.70;4.30;;;24.20;65.50;;;;;;6072401;28;96128;-69
2023/03/27 13:49:24;;;;;;;4.80;4.30;;;24.20;65.50;;;;;;6084496;28;93120;-69
2023/03/27 13:53:08;;;;;;;5.40;4.80;;;24.20;65.50;;;;;;6056021;28;94451;-69
2023/03/27 13:56:23;;;;;;;5.55;4.15;;;24.10;65.40;;;;;;6084514;28;93083;-69
2023/03/27 14:00:05;;;;;;;4.38;3.97;;;24.20;65.50;;;;;;6085136;28;94127;-69
2023/03/27 14:03:43;;;;;;;4.40;4.00;;;24.10;65.50;;;;;;6083271;28;93228;-70
2023/03/27 14:07:20;;;;;;;5.63;4.85;;;24.10;65.50;;;;;;6072320;28;94236;-70
2023/03/27 14:10:52;;;;;;;4.03;3.70;;;24.10;65.50;;;;;;6076777;28;95270;-69
2023/03/27 14:14:17;;;;;;;3.97;3.67;;;24.10;65.50;;;;;;6080864;28;95388;-69
2023/03/27 14:17:42;;;;;;;4.15;3.75;;;24.10;65.60;;;;;;6078187;28;95192;-69
2023/03/27 14:20:46;;;;;;;4.18;3.78;;;24.10;65.70;;;;;;6082291;28;94226;-69
2023/03/27 14:23:53;;;;;;;4.30;3.90;;;24.00;65.60;;;;;;6084161;28;94167;-69
2023/03/27 14:26:58;;;;;;;3.90;3.60;;;24.10;65.70;;;;;;6082258;28;94245;-69
2023/03/27 14:30:15;;;;;;;4.25;3.85;;;24.10;65.60;;;;;;6083471;28;94108;-69
2023/03/27 14:33:18;;;;;;;3.83;3.53;;;24.10;65.60;;;;;;6076284;28;94011;-69
2023/03/27 14:36:24;;;;;;;4.20;3.80;;;24.10;65.60;;;;;;6084082;28;93392;-69
2023/03/27 14:39:30;;;;;;;3.92;3.53;;;24.10;65.50;;;;;;6083862;28;94304;-69
2023/03/27 14:42:32;;;;;;;3.67;3.38;;;24.10;65.50;;;;;;6083511;28;94255;-69
2023/03/27 14:45:38;;;;;;;3.33;3.03;;;24.10;65.50;;;;;;6080979;28;95122;-69
2023/03/27 14:48:43;;;;;;;3.63;3.33;;;24.10;65.40;;;;;;6080498;28;94150;-69
2023/03/27 14:51:47;;;;;;;3.78;3.47;;;24.10;65.40;;;;;;6082673;28;94180;-69
2023/03/27 14:54:52;;;;;;;3.50;3.20;;;24.10;65.40;;;;;;6082596;28;94321;-69
2023/03/27 14:57:58;;;;;;;3.40;3.10;;;24.10;65.30;;;;;;6082316;28;94103;-69
2023/03/27 15:01:02;;;;;;;3.58;3.28;;;24.10;65.20;;;;;;6083241;28;94160;-69
2023/03/27 15:04:09;;;;;;;3.47;3.17;;;24.10;65.30;;;;;;6082388;28;94208;-69
2023/03/27 15:07:17;;;;;;;3.17;2.88;;;24.10;66.10;;;;;;6083465;28;93353;-69
2023/03/27 15:10:22;;;;;;;3.28;2.97;;;24.10;65.20;;;;;;6083604;28;94100;-70
2023/03/27 15:13:26;;;;;;;3.55;3.00;;;24.10;65.10;;;;;;6082637;28;94002;-69
2023/03/27 15:16:34;;;;;;;3.50;3.20;;;24.10;65.00;;;;;;6081857;28;95087;-69
2023/03/27 15:19:44;;;;;;;3.50;3.20;;;24.20;65.10;;;;;;6082634;28;93285;-70
2023/03/27 15:22:49;;;;;;;3.25;2.92;;;24.10;65.00;;;;;;6073376;28;93912;-69
2023/03/27 15:25:58;;;;;;;2.72;2.53;;;24.10;64.90;;;;;;6084029;28;94706;-68
2023/03/27 15:29:07;;;;;;;2.95;2.75;;;24.10;64.90;;;;;;6082339;28;94389;-69
2023/03/27 15:32:17;;;;;;;3.05;2.85;;;24.10;64.80;;;;;;6082493;28;95896;-69
2023/03/27 15:35:25;;;;;;;2.72;2.53;;;24.10;64.80;;;;;;6081982;28;96092;-67
2023/03/27 15:38:31;;;;;;;3.08;2.63;;;24.10;64.80;;;;;;6081139;28;93660;-67
2023/03/27 15:41:44;;;;;;;3.25;2.88;;;24.10;64.70;;;;;;6082510;28;93130;-67
2023/03/27 15:44:46;;;;;;;3.22;2.83;;;24.10;64.80;;;;;;6081527;28;94193;-67
2023/03/27 15:48:01;;;;;;;3.20;2.55;;;24.20;65.00;;;;;;6082582;28;95101;-67
2023/03/27 15:51:05;;;;;;;3.67;2.42;;;24.20;65.00;;;;;;6074824;28;93839;-68
2023/03/27 15:54:23;;;;;;;4.13;2.70;;;24.10;65.00;;;;;;6082097;28;94066;-67
2023/03/27 15:57:28;;;;;;;2.63;2.42;;;24.20;65.00;;;;;;6082128;28;94070;-67
2023/03/27 16:00:30;;;;;;;2.95;2.65;;;24.20;65.00;;;;;;6081129;28;94228;-67
2023/03/27 16:03:35;;;;;;;3.55;2.50;;;24.20;65.10;;;;;;6081284;28;94214;-68
2023/03/27 16:06:39;;;;;;;2.90;2.60;;;24.20;65.10;;;;;;6081094;28;93068;-67
2023/03/27 16:09:50;;;;;;;2.60;2.40;;;24.20;66.10;;;;;;6082739;28;93470;-67
2023/03/27 16:12:57;;;;;;;3.40;2.38;;;24.20;65.20;;;;;;6075095;28;92972;-67
2023/03/27 16:16:01;;;;;;;3.13;2.60;;;24.20;65.10;;;;;;6082251;28;94240;-66